createdAt,value
2022-10-21T00:00:56.496Z,12.91
2022-10-21T00:03:24.942Z,12.80
2022-10-21T00:05:53.049Z,12.76
2022-10-21T00:08:21.951Z,12.68
2022-10-21T00:10:54.290Z,12.56
2022-10-21T00:13:22.338Z,12.51
2022-10-21T00:16:14.574Z,12.51
2022-10-21T00:18:44.042Z,12.41
2022-10-21T00:21:20.314Z,12.34
2022-10-21T00:23:48.733Z,12.40
2022-10-21T00:26:17.677Z,12.19
2022-10-21T00:28:45.222Z,12.12
2022-10-21T00:31:14.795Z,12.15
2022-10-21T00:33:42.715Z,12.16
2022-10-21T00:36:15.495Z,12.16
2022-10-21T00:38:45.469Z,12.14
2022-10-21T00:41:14.085Z,12.05
2022-10-21T00:44:01.972Z,12.14
2022-10-21T00:46:47.354Z,11.85
2022-10-21T00:49:44.190Z,11.95
2022-10-21T00:52:16.813Z,11.92
2022-10-21T00:54:46.026Z,11.89
2022-10-21T00:57:13.447Z,12.01
2022-10-21T00:59:45.822Z,12.01
2022-10-21T01:02:13.223Z,11.99
2022-10-21T01:04:40.609Z,11.90
2022-10-21T01:07:08.146Z,11.97
2022-10-21T01:09:35.595Z,11.90
2022-10-21T01:12:04.368Z,11.94
2022-10-21T01:14:37.928Z,11.97
2022-10-21T01:18:03.988Z,12.05
2022-10-21T01:21:16.147Z,12.14
2022-10-21T01:24:25.192Z,12.14
2022-10-21T01:27:06.096Z,12.12
2022-10-21T01:30:10.151Z,11.99
2022-10-21T01:33:35.783Z,12.05
2022-10-21T01:36:30.336Z,12.06
2022-10-21T01:39:03.627Z,12.34
2022-10-21T01:41:41.778Z,12.69
2022-10-21T01:44:34.895Z,12.97
2022-10-21T01:47:19.662Z,12.69
2022-10-21T01:49:53.161Z,12.61
2022-10-21T01:52:20.974Z,12.67
2022-10-21T01:55:01.036Z,12.69
2022-10-21T01:57:36.139Z,12.46
2022-10-21T02:00:05.596Z,12.52
2022-10-21T02:02:38.138Z,12.47
2022-10-21T02:05:14.832Z,12.41
2022-10-21T02:07:42.527Z,12.30
2022-10-21T02:10:10.435Z,12.26
2022-10-21T02:12:41.899Z,12.39
2022-10-21T02:15:12.723Z,12.35
2022-10-21T02:17:46.776Z,12.28
2022-10-21T02:20:17.843Z,12.23
2022-10-21T02:22:47.098Z,12.16
2022-10-21T02:25:20.653Z,12.52
2022-10-21T02:27:51.612Z,13.08
2022-10-21T02:30:19.349Z,13.20
2022-10-21T02:32:49.412Z,13.18
2022-10-21T02:35:55.715Z,13.13
2022-10-21T02:38:28.189Z,13.22
2022-10-21T02:41:05.056Z,13.21
2022-10-21T02:43:37.444Z,13.14
2022-10-21T02:46:15.013Z,12.87
2022-10-21T02:48:47.326Z,12.69
2022-10-21T02:51:15.947Z,12.46
2022-10-21T02:53:43.941Z,12.39
2022-10-21T02:56:11.431Z,12.26
2022-10-21T02:58:38.879Z,12.24
2022-10-21T03:01:09.071Z,12.27
2022-10-21T03:03:39.045Z,12.25
2022-10-21T03:06:06.675Z,12.22
2022-10-21T03:08:34.033Z,12.11
2022-10-21T03:11:01.507Z,12.10
2022-10-21T03:13:28.871Z,11.96
2022-10-21T03:15:56.294Z,11.93
2022-10-21T03:18:25.987Z,11.88
2022-10-21T03:20:53.376Z,11.74
2022-10-21T03:23:21.706Z,11.77
2022-10-21T03:25:49.007Z,11.77
2022-10-21T03:28:18.348Z,11.74
2022-10-21T03:30:45.972Z,11.75
2022-10-21T03:33:13.745Z,11.66
2022-10-21T03:35:40.978Z,12.12
2022-10-21T03:38:08.407Z,12.19
2022-10-21T03:40:35.718Z,12.15
2022-10-21T03:43:03.372Z,11.99
2022-10-21T03:45:30.666Z,11.89
2022-10-21T03:47:57.939Z,11.97
2022-10-21T03:50:26.582Z,11.93
2022-10-21T03:52:55.120Z,12.08
2022-10-21T03:55:24.434Z,12.06
2022-10-21T03:57:53.209Z,12.37
2022-10-21T04:00:21.300Z,12.49
2022-10-21T04:02:49.181Z,12.35
2022-10-21T04:05:16.918Z,12.16
2022-10-21T04:07:48.156Z,11.95
2022-10-21T04:10:19.468Z,11.75
2022-10-21T04:12:46.866Z,11.99
2022-10-21T04:15:14.440Z,11.74
2022-10-21T04:17:43.063Z,12.12
2022-10-21T04:20:11.505Z,12.22
2022-10-21T04:22:39.148Z,12.12
2022-10-21T04:25:06.964Z,11.98
2022-10-21T04:27:34.396Z,11.95
2022-10-21T04:30:01.787Z,11.84
2022-10-21T04:32:29.118Z,12.10
2022-10-21T04:34:56.555Z,12.20
2022-10-21T04:37:23.927Z,11.95
2022-10-21T04:39:51.288Z,11.93
2022-10-21T04:42:18.676Z,11.82
2022-10-21T04:44:46.028Z,11.66
2022-10-21T04:47:13.353Z,11.77
2022-10-21T04:49:40.755Z,11.89
2022-10-21T04:52:08.116Z,12.18
2022-10-21T04:54:35.441Z,12.34
2022-10-21T04:57:02.837Z,12.40
2022-10-21T04:59:30.269Z,12.22
2022-10-21T05:01:57.758Z,11.93
2022-10-21T05:04:25.136Z,11.98
2022-10-21T05:06:52.472Z,12.06
2022-10-21T05:09:19.813Z,11.93
2022-10-21T05:11:47.263Z,11.77
2022-10-21T05:14:15.751Z,11.68
2022-10-21T05:16:44.941Z,11.60
2022-10-21T05:19:12.776Z,11.38
2022-10-21T05:21:40.109Z,11.24
2022-10-21T05:24:07.652Z,11.10
2022-10-21T05:26:37.636Z,11.00
2022-10-21T05:29:05.053Z,11.03
2022-10-21T05:31:32.496Z,11.18
2022-10-21T05:33:59.744Z,11.20
2022-10-21T05:36:29.666Z,11.31
2022-10-21T05:38:57.094Z,11.45
2022-10-21T05:41:24.323Z,11.54
2022-10-21T05:43:51.674Z,11.74
2022-10-21T05:46:19.119Z,11.79
2022-10-21T05:51:18.687Z,11.78
2022-10-21T05:53:45.994Z,11.94
2022-10-21T05:56:15.551Z,12.08
2022-10-21T05:58:43.015Z,12.18
2022-10-21T06:01:10.416Z,12.11
2022-10-21T06:03:37.936Z,12.29
2022-10-21T06:06:09.759Z,12.28
2022-10-21T06:08:39.488Z,12.35
2022-10-21T06:11:13.106Z,12.43
2022-10-21T06:13:41.826Z,12.62
2022-10-21T06:16:10.341Z,12.77
2022-10-21T06:18:38.083Z,13.01
2022-10-21T06:21:06.322Z,13.08
2022-10-21T06:23:34.494Z,13.27
2022-10-21T06:26:07.297Z,13.33
2022-10-21T06:28:37.280Z,13.53
2022-10-21T06:31:05.669Z,13.67
2022-10-21T06:33:33.439Z,13.82
2022-10-21T06:36:00.929Z,13.97
2022-10-21T06:38:28.411Z,14.13
2022-10-21T06:41:03.735Z,14.32
2022-10-21T06:43:31.248Z,14.46
2022-10-21T06:46:03.554Z,14.47
2022-10-21T06:48:31.156Z,14.67
2022-10-21T06:51:03.760Z,14.84
2022-10-21T06:53:32.996Z,14.92
2022-10-21T06:56:08.220Z,15.12
2022-10-21T06:58:38.392Z,15.33
2022-10-21T07:01:27.450Z,15.58
2022-10-21T07:04:01.416Z,15.81
2022-10-21T07:06:29.012Z,16.09
2022-10-21T07:08:58.842Z,16.28
2022-10-21T07:11:27.803Z,16.49
2022-10-21T07:13:55.748Z,16.64
2022-10-21T07:16:31.904Z,16.82
2022-10-21T07:18:59.426Z,16.84
2022-10-21T07:21:28.996Z,16.69
2022-10-21T07:23:59.548Z,16.85
2022-10-21T07:26:29.780Z,17.05
2022-10-21T07:28:59.269Z,17.32
2022-10-21T07:31:28.150Z,17.60
2022-10-21T07:33:56.008Z,17.71
2022-10-21T07:36:27.605Z,17.83
2022-10-21T07:38:58.079Z,18.01
2022-10-21T07:41:28.920Z,17.95
2022-10-21T07:43:56.875Z,18.16
2022-10-21T07:46:24.733Z,18.43
2022-10-21T07:48:52.680Z,18.63
2022-10-21T07:51:26.990Z,18.46
2022-10-21T07:53:58.865Z,18.47
2022-10-21T07:56:32.104Z,18.77
2022-10-21T07:59:01.811Z,18.73
2022-10-21T08:01:30.070Z,18.79
2022-10-21T08:03:58.865Z,19.15
2022-10-21T08:06:27.646Z,18.91
2022-10-21T08:08:59.209Z,18.94
2022-10-21T08:11:32.246Z,19.27
2022-10-21T08:14:00.484Z,19.61
2022-10-21T08:16:27.962Z,19.85
2022-10-21T08:18:56.739Z,19.87
2022-10-21T08:21:24.055Z,20.07
2022-10-21T08:23:51.652Z,20.33
2022-10-21T08:26:19.591Z,20.01
2022-10-21T08:28:47.138Z,19.78
2022-10-21T08:31:20.133Z,20.12
2022-10-21T08:33:48.487Z,20.47
2022-10-21T08:36:26.340Z,20.28
2022-10-21T08:38:54.320Z,20.30
2022-10-21T08:41:33.737Z,20.09
2022-10-21T08:44:08.200Z,20.12
2022-10-21T08:46:42.385Z,20.35
2022-10-21T08:49:23.189Z,20.38
2022-10-21T08:52:06.421Z,20.39
2022-10-21T08:55:01.843Z,20.70
2022-10-21T08:57:29.602Z,20.63
2022-10-21T08:59:57.417Z,21.08
2022-10-21T09:02:27.806Z,21.22
2022-10-21T09:05:14.055Z,21.48
2022-10-21T09:07:59.306Z,21.92
2022-10-21T09:10:37.640Z,22.02
2022-10-21T09:13:22.963Z,22.17
2022-10-21T09:16:08.517Z,22.06
2022-10-21T09:19:02.012Z,22.03
2022-10-21T09:22:29.896Z,22.29
2022-10-21T09:25:03.809Z,22.63
2022-10-21T09:27:50.905Z,22.95
2022-10-21T09:30:23.100Z,23.75
2022-10-21T09:32:55.988Z,24.01
2022-10-21T09:35:24.341Z,23.98
2022-10-21T09:37:59.033Z,23.89
2022-10-21T09:40:29.050Z,23.65
2022-10-21T09:42:59.818Z,23.40
2022-10-21T09:45:39.162Z,23.53
2022-10-21T09:48:10.510Z,23.57
2022-10-21T09:50:38.279Z,23.37
2022-10-21T09:53:22.765Z,23.50
2022-10-21T09:55:59.007Z,23.76
2022-10-21T09:58:29.318Z,23.75
2022-10-21T10:00:58.917Z,23.74
2022-10-21T10:03:42.790Z,23.76
2022-10-21T10:06:10.392Z,23.69
2022-10-21T10:08:41.580Z,24.10
2022-10-21T10:11:14.724Z,24.03
2022-10-21T10:13:48.476Z,24.13
2022-10-21T10:16:33.124Z,24.07
2022-10-21T10:19:28.650Z,24.24
2022-10-21T10:22:12.297Z,24.45
2022-10-21T10:24:41.769Z,23.94
2022-10-21T10:27:17.237Z,24.28
2022-10-21T10:29:54.293Z,24.34
2022-10-21T10:32:25.030Z,24.38
2022-10-21T10:34:59.272Z,24.53
2022-10-21T10:37:34.316Z,24.49
2022-10-21T10:40:06.573Z,24.55
2022-10-21T10:42:43.468Z,24.38
2022-10-21T10:45:20.629Z,24.74
2022-10-21T10:47:55.945Z,24.82
2022-10-21T10:50:39.643Z,24.81
2022-10-21T10:53:29.006Z,24.65
2022-10-21T10:56:15.768Z,24.49
2022-10-21T10:58:51.922Z,24.62
2022-10-21T11:01:37.667Z,25.20
2022-10-21T11:04:17.875Z,25.18
2022-10-21T11:06:51.791Z,25.41
2022-10-21T11:09:22.752Z,25.57
2022-10-21T11:11:56.187Z,25.68
2022-10-21T11:14:23.905Z,25.27
2022-10-21T11:17:00.002Z,25.05
2022-10-21T11:19:30.948Z,24.96
2022-10-21T11:22:17.127Z,24.76
2022-10-21T11:25:12.240Z,25.15
2022-10-21T11:28:22.669Z,24.87
2022-10-21T11:31:23.727Z,25.00
2022-10-21T11:34:29.196Z,25.46
2022-10-21T11:37:08.384Z,25.58
2022-10-21T11:40:03.765Z,25.18
2022-10-21T11:42:50.484Z,25.37
2022-10-21T11:45:38.423Z,25.82
2022-10-21T11:48:26.091Z,27.76
2022-10-21T11:51:06.251Z,28.71
2022-10-21T11:53:37.782Z,29.43
2022-10-21T11:56:30.887Z,29.15
2022-10-21T11:59:44.265Z,27.76
2022-10-21T12:02:44.793Z,27.64
2022-10-21T12:05:22.740Z,26.87
2022-10-21T12:08:11.382Z,26.00
2022-10-21T12:10:50.047Z,26.02
2022-10-21T12:13:23.435Z,26.24
2022-10-21T12:15:56.395Z,26.01
2022-10-21T12:18:26.722Z,26.18
2022-10-21T12:20:55.301Z,25.99
2022-10-21T12:23:26.048Z,25.50
2022-10-21T12:25:58.341Z,25.09
2022-10-21T12:28:49.760Z,25.09
2022-10-21T12:31:22.904Z,24.84
2022-10-21T12:33:51.077Z,24.67
2022-10-21T12:36:50.824Z,24.29
2022-10-21T12:39:50.890Z,24.01
2022-10-21T12:42:29.398Z,24.07
2022-10-21T12:44:56.785Z,23.88
2022-10-21T12:47:37.646Z,23.69
2022-10-21T12:50:08.290Z,23.46
2022-10-21T12:52:38.687Z,23.48
2022-10-21T12:55:17.819Z,23.37
2022-10-21T12:57:45.800Z,23.18
2022-10-21T13:00:33.165Z,23.16
2022-10-21T13:03:04.747Z,23.27
2022-10-21T13:05:38.009Z,23.21
2022-10-21T13:08:20.863Z,23.35
2022-10-21T13:11:03.385Z,23.38
2022-10-21T13:13:46.721Z,23.16
2022-10-21T13:16:20.056Z,23.02
2022-10-21T13:19:01.546Z,23.16
2022-10-21T13:21:40.686Z,22.99
2022-10-21T13:24:26.524Z,22.88
2022-10-21T13:27:02.220Z,23.15
2022-10-21T13:29:38.183Z,23.07
2022-10-21T13:32:17.707Z,23.13
2022-10-21T13:34:51.344Z,22.96
2022-10-21T13:37:29.479Z,22.78
2022-10-21T13:39:59.981Z,22.84
2022-10-21T13:42:35.896Z,22.90
2022-10-21T13:45:26.699Z,22.79
2022-10-21T13:48:16.004Z,22.80
2022-10-21T13:50:46.649Z,22.80
2022-10-21T13:53:38.281Z,22.79
2022-10-21T13:56:08.827Z,22.60
2022-10-21T13:58:41.286Z,22.81
2022-10-21T14:01:24.655Z,22.83
2022-10-21T14:03:54.088Z,22.78
2022-10-21T14:06:32.415Z,22.85
2022-10-21T14:09:02.411Z,22.79
2022-10-21T14:11:36.558Z,22.53
2022-10-21T14:14:08.694Z,22.38
2022-10-21T14:16:39.863Z,22.26
2022-10-21T14:19:11.789Z,21.99
2022-10-21T14:21:43.193Z,21.66
2022-10-21T14:24:43.540Z,21.64
2022-10-21T14:27:18.804Z,21.60
2022-10-21T14:29:46.797Z,21.53
2022-10-21T14:32:16.616Z,21.46
2022-10-21T14:35:21.951Z,21.28
2022-10-21T14:37:55.091Z,21.11
2022-10-21T14:40:39.871Z,21.04
2022-10-21T14:43:23.788Z,20.91
2022-10-21T14:45:54.568Z,20.93
2022-10-21T14:48:33.966Z,20.87
2022-10-21T14:51:05.364Z,20.77
2022-10-21T14:53:36.641Z,20.70
2022-10-21T14:56:07.987Z,20.58
2022-10-21T14:58:38.172Z,20.54
2022-10-21T15:01:31.845Z,20.50
2022-10-21T15:04:01.102Z,20.40
2022-10-21T15:06:36.607Z,20.35
2022-10-21T15:09:18.980Z,20.27
2022-10-21T15:11:47.879Z,20.26
2022-10-21T15:14:18.051Z,20.14
2022-10-21T15:17:11.704Z,20.08
2022-10-21T15:19:49.512Z,20.01
2022-10-21T15:22:32.028Z,19.91
2022-10-21T15:25:06.940Z,19.79
2022-10-21T15:27:42.355Z,19.64
2022-10-21T15:30:21.940Z,19.58
2022-10-21T15:32:50.206Z,19.50
2022-10-21T15:35:20.820Z,19.45
2022-10-21T15:37:49.882Z,19.38
2022-10-21T15:40:19.268Z,19.32
2022-10-21T15:42:48.255Z,19.23
2022-10-21T15:45:18.708Z,19.15
2022-10-21T15:47:54.658Z,19.02
2022-10-21T15:50:27.193Z,18.93
2022-10-21T15:55:23.359Z,18.77
2022-10-21T15:57:50.714Z,18.66
2022-10-21T16:00:21.975Z,18.61
2022-10-21T16:02:53.978Z,18.54
2022-10-21T16:05:24.653Z,18.48
2022-10-21T16:07:52.422Z,18.42
2022-10-21T16:10:30.032Z,18.36
2022-10-21T16:12:58.316Z,18.34
2022-10-21T16:15:26.206Z,18.34
2022-10-21T16:17:56.784Z,18.26
2022-10-21T16:20:26.287Z,18.21
2022-10-21T16:22:53.984Z,18.15
2022-10-21T16:25:21.688Z,18.04
2022-10-21T16:27:56.188Z,17.94
2022-10-21T16:30:34.924Z,17.83
2022-10-21T16:33:02.404Z,17.86
2022-10-21T16:35:29.732Z,17.82
2022-10-21T16:37:57.185Z,17.69
2022-10-21T16:40:32.306Z,17.78
2022-10-21T16:42:59.836Z,17.76
2022-10-21T16:45:32.290Z,17.75
2022-10-21T16:48:03.767Z,17.63
2022-10-21T16:50:45.567Z,17.55
2022-10-21T16:53:16.105Z,17.54
2022-10-21T16:55:43.808Z,17.50
2022-10-21T16:58:11.309Z,17.49
2022-10-21T17:00:38.715Z,17.44
2022-10-21T17:03:06.195Z,17.42
2022-10-21T17:08:01.769Z,17.39
2022-10-21T17:10:29.092Z,17.26
2022-10-21T17:12:59.397Z,17.20
2022-10-21T17:15:27.975Z,17.24
2022-10-21T17:17:55.225Z,17.19
2022-10-21T17:20:22.653Z,17.27
2022-10-21T17:22:49.945Z,17.10
2022-10-21T17:25:17.712Z,17.10
2022-10-21T17:27:45.329Z,17.11
2022-10-21T17:30:12.852Z,17.16
2022-10-21T17:32:40.133Z,17.49
2022-10-21T17:35:08.814Z,17.36
2022-10-21T17:37:36.332Z,17.35
2022-10-21T17:40:03.976Z,17.28
2022-10-21T17:42:32.551Z,17.14
2022-10-21T17:45:02.874Z,17.00
2022-10-21T17:47:31.235Z,16.96
2022-10-21T17:49:58.594Z,17.20
2022-10-21T17:52:26.924Z,17.14
2022-10-21T17:54:54.350Z,17.42
2022-10-21T17:57:23.638Z,17.34
2022-10-21T17:59:53.363Z,17.08
2022-10-21T18:02:20.965Z,16.95
2022-10-21T18:04:48.482Z,17.13
2022-10-21T18:07:17.887Z,17.11
2022-10-21T18:09:45.373Z,16.95
2022-10-21T18:12:13.976Z,16.73
2022-10-21T18:14:41.449Z,16.75
2022-10-21T18:17:09.830Z,16.65
2022-10-21T18:19:37.254Z,16.53
2022-10-21T18:22:05.480Z,16.40
2022-10-21T18:24:35.095Z,16.43
2022-10-21T18:27:02.614Z,16.28
2022-10-21T18:29:29.902Z,16.27
2022-10-21T18:31:57.325Z,16.24
2022-10-21T18:34:24.694Z,16.22
2022-10-21T18:39:24.505Z,16.18
2022-10-21T18:41:52.120Z,16.20
2022-10-21T18:44:19.431Z,16.14
2022-10-21T18:46:50.140Z,16.27
2022-10-21T18:49:19.802Z,16.36
2022-10-21T18:51:47.261Z,16.38
2022-10-21T18:54:16.010Z,16.28
2022-10-21T18:56:45.076Z,16.15
2022-10-21T18:59:12.830Z,16.08
2022-10-21T19:01:40.625Z,16.25
2022-10-21T19:04:08.193Z,16.16
2022-10-21T19:06:36.295Z,16.15
2022-10-21T19:09:15.499Z,15.98
2022-10-21T19:11:44.076Z,16.00
2022-10-21T19:14:14.127Z,15.81
2022-10-21T19:16:43.745Z,15.88
2022-10-21T19:19:11.631Z,15.77
2022-10-21T19:21:39.252Z,15.68
2022-10-21T19:24:07.705Z,15.76
2022-10-21T19:26:37.764Z,15.82
2022-10-21T19:29:09.257Z,15.80
2022-10-21T19:31:38.519Z,15.78
2022-10-21T19:34:07.155Z,15.79
2022-10-21T19:36:34.933Z,15.78
2022-10-21T19:39:02.293Z,15.68
2022-10-21T19:41:29.683Z,15.80
2022-10-21T19:44:00.637Z,15.71
2022-10-21T19:46:30.382Z,15.76
2022-10-21T19:49:01.592Z,15.64
2022-10-21T19:51:29.187Z,15.57
2022-10-21T19:53:57.237Z,15.50
2022-10-21T19:56:29.572Z,15.50
2022-10-21T19:59:00.351Z,15.47
2022-10-21T20:01:27.928Z,15.41
2022-10-21T20:03:55.956Z,15.35
2022-10-21T20:06:32.724Z,15.32
2022-10-21T20:09:02.808Z,15.28
2022-10-21T20:11:30.720Z,15.31
2022-10-21T20:13:58.770Z,15.22
2022-10-21T20:16:30.522Z,15.36
2022-10-21T20:19:00.122Z,15.35
2022-10-21T20:21:27.929Z,15.39
2022-10-21T20:23:58.022Z,15.32
2022-10-21T20:26:25.562Z,15.38
2022-10-21T20:28:53.208Z,15.32
2022-10-21T20:31:21.011Z,15.31
2022-10-21T20:33:50.702Z,15.35
2022-10-21T20:36:23.901Z,15.31
2022-10-21T20:38:53.615Z,15.26
2022-10-21T20:41:24.956Z,15.24
2022-10-21T20:43:53.774Z,15.29
2022-10-21T20:46:23.442Z,15.25
2022-10-21T20:48:52.446Z,15.21
2022-10-21T20:51:25.430Z,15.11
2022-10-21T20:53:55.891Z,15.00
2022-10-21T20:56:26.017Z,14.97
2022-10-21T20:58:53.676Z,14.95
2022-10-21T21:01:26.628Z,15.00
2022-10-21T21:03:56.467Z,14.96
2022-10-21T21:06:24.827Z,14.94
2022-10-21T21:09:15.152Z,14.87
2022-10-21T21:11:40.820Z,14.87
2022-10-21T21:14:08.209Z,14.92
2022-10-21T21:16:35.940Z,14.94
2022-10-21T21:19:06.646Z,14.84
2022-10-21T21:21:36.055Z,14.82
2022-10-21T21:24:03.881Z,14.74
2022-10-21T21:26:39.849Z,14.55
2022-10-21T21:29:09.037Z,14.62
2022-10-21T21:31:38.593Z,14.58
2022-10-21T21:34:07.152Z,14.57
2022-10-21T21:36:34.896Z,14.51
2022-10-21T21:39:02.873Z,14.52
2022-10-21T21:41:30.199Z,14.40
2022-10-21T21:43:58.552Z,14.46
2022-10-21T21:46:26.782Z,14.35
2022-10-21T21:49:05.482Z,14.24
2022-10-21T21:51:35.644Z,14.17
2022-10-21T21:54:04.922Z,14.24
2022-10-21T21:56:32.348Z,14.26
2022-10-21T21:58:59.684Z,14.27
2022-10-21T22:01:29.385Z,14.22
2022-10-21T22:03:57.705Z,14.21
2022-10-21T22:06:29.041Z,14.30
2022-10-21T22:08:56.937Z,14.32
2022-10-21T22:11:26.783Z,14.37
2022-10-21T22:13:54.423Z,14.36
2022-10-21T22:16:24.686Z,14.43
2022-10-21T22:18:52.399Z,14.64
2022-10-21T22:21:20.169Z,14.60
2022-10-21T22:23:48.836Z,14.65
2022-10-21T22:26:17.903Z,14.52
2022-10-21T22:28:45.323Z,14.40
2022-10-21T22:31:15.668Z,14.29
2022-10-21T22:36:16.817Z,14.15
2022-10-21T22:38:45.408Z,14.38
2022-10-21T22:41:13.117Z,14.43
2022-10-21T22:43:41.133Z,14.46
2022-10-21T22:46:22.114Z,14.46
2022-10-21T22:48:56.140Z,14.51
2022-10-21T22:51:23.543Z,14.54
2022-10-21T22:53:55.326Z,14.46
2022-10-21T22:56:28.122Z,14.47
2022-10-21T22:58:55.599Z,14.22
2022-10-21T23:01:24.316Z,14.09
2022-10-21T23:03:52.123Z,14.06
2022-10-21T23:06:19.403Z,14.18
2022-10-21T23:08:46.769Z,14.22
2022-10-21T23:11:14.425Z,14.40
2022-10-21T23:13:51.236Z,14.21
2022-10-21T23:16:29.369Z,14.14
2022-10-21T23:18:56.798Z,13.98
2022-10-21T23:21:24.177Z,14.14
2022-10-21T23:23:52.410Z,14.20
2022-10-21T23:26:19.841Z,14.34
2022-10-21T23:28:47.086Z,14.37
2022-10-21T23:31:14.394Z,14.26
2022-10-21T23:33:43.147Z,14.24
2022-10-21T23:36:10.577Z,14.13
2022-10-21T23:38:38.029Z,14.01
2022-10-21T23:41:05.434Z,14.00
2022-10-21T23:43:32.703Z,13.92
2022-10-21T23:46:00.062Z,13.78
2022-10-21T23:48:27.373Z,13.84
2022-10-21T23:50:54.704Z,13.92
2022-10-21T23:53:22.084Z,13.68
2022-10-21T23:55:49.491Z,13.77
2022-10-21T23:58:16.730Z,13.71
